Time;durP1;ratioP1;P1;durP2;ratioP2;P2;SDS_P1;SDS_P2;PMS_P1;PMS_P2;Temp;Humidity;BMP_temperature;BMP_pressure;BME280_temperature;BME280_humidity;BME280_pressure;Samples;Min_cycle;Max_cycle;Signal;HPM_P1;HPM_P2
2020/12/30 00:00:48;;;;;;;23.33;17.43;;;;;;;-144.99;100.00;52517.41;5062403;28;20630;-77
2020/12/30 00:03:15;;;;;;;23.63;17.73;;;;;;;-144.99;100.00;52501.09;5051725;28;20735;-77
2020/12/30 00:05:42;;;;;;;26.13;18.17;;;;;;;-144.99;100.00;52486.81;5048780;28;21456;-77
2020/12/30 00:08:09;;;;;;;28.60;21.47;;;;;;;-144.99;100.00;52554.09;5062302;28;20658;-78
2020/12/30 00:10:35;;;;;;;27.60;20.10;;;;;;;-144.99;100.00;52509.25;5057309;28;20666;-77
2020/12/30 00:13:01;;;;;;;25.60;20.20;;;;;;;-144.99;100.00;52492.94;5068055;28;20647;-77
2020/12/30 00:15:27;;;;;;;25.87;21.53;;;;;;;-144.99;100.00;52529.63;5062885;28;20944;-76
2020/12/30 00:17:54;;;;;;;31.73;20.57;;;;;;;-144.99;100.00;52533.69;5056869;28;20659;-75
2020/12/30 00:20:20;;;;;;;26.37;20.57;;;;;;;-144.99;100.00;52550.00;5049695;28;20638;-76
2020/12/30 00:22:47;;;;;;;29.23;23.00;;;;;;;-144.99;100.00;52513.31;5053740;28;20627;-76
2020/12/30 00:25:15;;;;;;;28.33;22.80;;;;;;;-144.99;100.00;52517.41;5049980;28;20660;-74
2020/12/30 00:27:43;;;;;;;28.17;21.67;;;;;;;-144.99;100.00;52545.94;5051306;28;20698;-75
2020/12/30 00:30:10;;;;;;;27.73;22.37;;;;;;;-144.99;100.00;52519.44;5048415;28;20668;-74
2020/12/30 00:32:36;;;;;;;33.13;24.20;;;;;;;-144.99;100.00;52550.00;5060958;28;20630;-75
2020/12/30 00:35:03;;;;;;;31.47;24.27;;;;;;;-144.99;100.00;52476.63;5067299;28;21237;-76
2020/12/30 00:37:29;;;;;;;25.87;20.10;;;;;;;-144.99;100.00;52545.94;5067594;28;21028;-77
2020/12/30 00:39:55;;;;;;;28.70;22.20;;;;;;;-144.99;100.00;52513.31;5063841;28;20666;-77
2020/12/30 00:42:22;;;;;;;27.17;21.33;;;;;;;-144.99;100.00;52497.00;5055011;28;21054;-77
2020/12/30 00:44:48;;;;;;;29.07;24.27;;;;;;;-144.99;100.00;52531.66;5055169;28;20622;-77
2020/12/30 00:47:15;;;;;;;33.33;25.30;;;;;;;-144.99;100.00;52511.28;5047520;28;20723;-76
2020/12/30 00:49:41;;;;;;;30.47;24.43;;;;;;;-144.99;100.00;52525.56;5056448;28;20676;-75
2020/12/30 00:52:08;;;;;;;32.03;26.00;;;;;;;-144.99;100.00;52501.09;5068365;28;20703;-77
2020/12/30 00:54:35;;;;;;;34.83;26.00;;;;;;;-144.99;100.00;52541.84;5066528;28;20646;-77
2020/12/30 00:57:01;;;;;;;34.20;25.90;;;;;;;-144.99;100.00;52501.09;5067580;28;20718;-76
2020/12/30 00:59:28;;;;;;;36.40;29.07;;;;;;;-144.99;100.00;52509.25;5064894;28;21294;-77
2020/12/30 01:01:54;;;;;;;33.67;26.47;;;;;;;-144.99;100.00;52533.69;5051841;28;20710;-77
2020/12/30 01:04:21;;;;;;;33.10;27.00;;;;;;;-144.99;100.00;52482.75;5051113;28;20650;-77
2020/12/30 01:06:50;;;;;;;40.23;28.27;;;;;;;-144.99;100.00;52521.47;5051604;28;20663;-77
2020/12/30 01:09:17;;;;;;;33.27;24.60;;;;;;;-144.99;100.00;52562.25;5048653;28;21260;-75
2020/12/30 01:11:44;;;;;;;35.67;27.33;;;;;;;-144.99;100.00;52545.94;4713339;28;9999846;-77
2020/12/30 01:14:10;;;;;;;38.67;27.40;;;;;;;-144.99;100.00;52545.94;5065526;28;20509;-77
2020/12/30 01:16:37;;;;;;;33.57;25.00;;;;;;;-144.99;100.00;52509.25;5064597;28;20725;-75
2020/12/30 01:19:04;;;;;;;35.60;27.97;;;;;;;-144.99;100.00;52505.16;5046823;28;20747;-75
2020/12/30 01:21:30;;;;;;;30.33;23.43;;;;;;;-144.99;100.00;52511.28;5048796;28;21212;-75
2020/12/30 01:23:56;;;;;;;33.27;25.33;;;;;;;-144.99;100.00;52509.25;5048358;28;20720;-76
2020/12/30 01:26:22;;;;;;;40.30;28.63;;;;;;;-144.99;100.00;52537.78;5062217;28;20654;-77
2020/12/30 01:28:48;;;;;;;40.23;26.87;;;;;;;-144.99;100.00;52513.31;5060871;28;20679;-77
2020/12/30 01:31:15;;;;;;;37.17;25.87;;;;;;;-144.99;100.00;52525.56;5057162;28;20686;-76
2020/12/30 01:33:43;;;;;;;30.77;25.40;;;;;;;-144.99;100.00;52488.84;5050103;28;20628;-74
2020/12/30 01:36:12;;;;;;;36.77;26.73;;;;;;;-144.99;100.00;52492.94;5057298;28;20615;-73
2020/12/30 01:38:38;;;;;;;35.27;28.33;;;;;;;-144.99;100.00;52517.41;5059281;28;20744;-72
2020/12/30 01:41:04;;;;;;;37.47;28.30;;;;;;;-144.99;100.00;52521.47;5064134;28;20971;-72
2020/12/30 01:43:30;;;;;;;33.70;26.43;;;;;;;-144.99;100.00;52545.94;5059018;28;20734;-71
2020/12/30 01:45:56;;;;;;;40.50;26.33;;;;;;;-144.99;100.00;52531.66;5052758;28;20725;-75
2020/12/30 01:48:23;;;;;;;40.70;29.23;;;;;;;-144.99;100.00;52562.25;5059106;28;20809;-75
2020/12/30 01:50:51;;;;;;;39.23;28.20;;;;;;;-144.99;100.00;52513.31;5049269;28;20666;-75
2020/12/30 01:53:17;;;;;;;33.87;26.23;;;;;;;-144.99;100.00;52529.63;5058464;28;20628;-75
2020/12/30 01:55:44;;;;;;;40.53;27.70;;;;;;;-144.99;100.00;52511.28;5049318;28;20647;-77
2020/12/30 01:58:11;;;;;;;40.10;27.27;;;;;;;-144.99;100.00;52525.56;5054502;28;21092;-75
2020/12/30 02:00:41;;;;;;;32.27;26.20;;;;;;;-144.99;100.00;52517.41;5049496;28;21024;-75
2020/12/30 02:03:08;;;;;;;35.10;26.80;;;;;;;-144.99;100.00;52513.31;5064022;28;20630;-75
2020/12/30 02:05:36;;;;;;;40.37;30.27;;;;;;;-144.99;100.00;52521.47;5050176;28;20990;-75
2020/12/30 02:08:04;;;;;;;39.37;28.67;;;;;;;-144.99;100.00;52509.25;5061626;28;20662;-74
2020/12/30 02:10:30;;;;;;;35.03;25.27;;;;;;;-144.99;100.00;52562.25;5049217;28;20754;-75
2020/12/30 02:12:57;;;;;;;39.33;30.13;;;;;;;-144.99;100.00;52505.16;5059818;28;20690;-74
2020/12/30 02:15:24;;;;;;;32.60;24.47;;;;;;;-144.99;100.00;52539.81;5065821;28;21206;-75
2020/12/30 02:17:50;;;;;;;37.40;27.40;;;;;;;-144.99;100.00;52503.13;5064373;28;20745;-75
2020/12/30 02:20:16;;;;;;;37.10;28.13;;;;;;;-144.99;100.00;52570.38;5050648;28;20735;-76
2020/12/30 02:22:46;;;;;;;38.63;27.17;;;;;;;-144.99;100.00;52533.69;5053191;28;20615;-75
2020/12/30 02:25:13;;;;;;;32.60;24.93;;;;;;;-144.99;100.00;52521.47;5055544;28;21179;-74
2020/12/30 02:27:39;;;;;;;39.60;28.00;;;;;;;-144.99;100.00;52519.44;5070108;28;20629;-75
2020/12/30 02:30:06;;;;;;;41.13;26.90;;;;;;;-144.99;100.00;52531.66;5066128;28;20655;-75
2020/12/30 02:32:32;;;;;;;36.97;25.70;;;;;;;-144.99;100.00;52529.63;5052795;28;20635;-77
2020/12/30 02:34:58;;;;;;;34.30;27.73;;;;;;;-144.99;100.00;52517.41;5072745;28;20718;-75
2020/12/30 02:37:24;;;;;;;36.83;27.40;;;;;;;-144.99;100.00;52525.56;5071811;28;20697;-75
2020/12/30 02:39:50;;;;;;;35.37;27.03;;;;;;;-144.99;100.00;52505.16;5067342;28;21314;-75
2020/12/30 02:42:17;;;;;;;36.60;27.23;;;;;;;-144.99;100.00;52501.09;5059481;28;20616;-75
2020/12/30 02:44:43;;;;;;;31.97;24.47;;;;;;;-144.99;100.00;52513.31;5059753;28;20690;-74
2020/12/30 02:47:09;;;;;;;33.83;23.20;;;;;;;-144.99;100.00;52521.47;5052376;28;20655;-74
2020/12/30 02:49:36;;;;;;;32.53;24.67;;;;;;;-144.99;100.00;52545.94;5092121;22;20737;-74
2020/12/30 02:52:02;;;;;;;33.80;21.60;;;;;;;-144.99;100.00;52517.41;5058672;28;20652;-74
2020/12/30 02:54:28;;;;;;;36.83;25.27;;;;;;;-144.99;100.00;52492.94;5076705;28;20643;-74
2020/12/30 02:56:54;;;;;;;31.97;23.73;;;;;;;-144.99;100.00;52472.56;5077028;28;20666;-74
2020/12/30 02:59:21;;;;;;;29.50;21.90;;;;;;;-144.99;100.00;52497.00;5074151;28;20736;-75
2020/12/30 03:01:47;;;;;;;28.97;23.43;;;;;;;-144.99;100.00;52499.06;5073148;28;20626;-74
2020/12/30 03:04:13;;;;;;;26.93;20.80;;;;;;;-144.99;100.00;52515.34;5057584;28;21377;-74
2020/12/30 03:06:39;;;;;;;31.07;23.47;;;;;;;-144.99;100.00;52507.19;5058777;28;20651;-74
2020/12/30 03:09:05;;;;;;;29.20;23.40;;;;;;;-144.99;100.00;52521.47;5053789;28;20655;-74
2020/12/30 03:11:32;;;;;;;33.67;23.70;;;;;;;-144.99;100.00;52468.47;5072109;28;20674;-74
2020/12/30 03:13:58;;;;;;;29.13;22.73;;;;;;;-144.99;100.00;52492.94;5082652;28;20712;-73
2020/12/30 03:16:25;;;;;;;36.70;24.13;;;;;;;-144.99;100.00;52550.00;5066823;28;20689;-73
2020/12/30 03:18:51;;;;;;;30.20;23.37;;;;;;;-144.99;100.00;52556.13;5052525;28;20694;-73
2020/12/30 03:21:17;;;;;;;32.57;24.23;;;;;;;-144.99;100.00;52525.56;5071642;28;20734;-73
2020/12/30 03:23:43;;;;;;;29.40;23.30;;;;;;;-144.99;100.00;52541.84;5053820;28;20749;-72
2020/12/30 03:26:09;;;;;;;28.37;22.47;;;;;;;-144.99;100.00;52519.44;5068719;28;20991;-73
2020/12/30 03:28:35;;;;;;;28.37;21.47;;;;;;;-144.99;100.00;52529.63;5052543;28;20684;-73
2020/12/30 03:31:01;;;;;;;29.53;22.00;;;;;;;-144.99;100.00;52521.47;5060896;28;20745;-73
2020/12/30 03:33:28;;;;;;;30.03;22.60;;;;;;;-144.99;100.00;52507.19;5053226;28;20703;-73
2020/12/30 03:35:55;;;;;;;28.67;21.50;;;;;;;-144.99;100.00;52513.31;5058995;28;20623;-73
2020/12/30 03:38:21;;;;;;;31.23;22.37;;;;;;;-144.99;100.00;52533.69;5064924;28;20863;-73
2020/12/30 03:40:47;;;;;;;32.33;23.07;;;;;;;-144.99;100.00;52505.16;5074961;28;20741;-73
2020/12/30 03:43:13;;;;;;;30.00;22.33;;;;;;;-144.99;100.00;52531.66;5065555;28;20635;-75
2020/12/30 03:45:39;;;;;;;32.20;24.30;;;;;;;-144.99;100.00;52513.31;5067368;28;20709;-74
2020/12/30 03:48:05;;;;;;;31.50;21.87;;;;;;;-144.99;100.00;52488.84;5073567;28;20653;-73
2020/12/30 03:50:32;;;;;;;33.90;23.70;;;;;;;-144.99;100.00;52533.69;5058989;28;20959;-76
2020/12/30 03:52:58;;;;;;;32.97;22.60;;;;;;;-144.99;100.00;52509.25;5065713;28;20937;-73
2020/12/30 03:55:24;;;;;;;30.17;24.37;;;;;;;-144.99;100.00;52517.41;5057864;28;20618;-75
2020/12/30 03:57:51;;;;;;;26.67;21.23;;;;;;;-144.99;100.00;52529.63;5060585;28;20655;-74
2020/12/30 04:00:17;;;;;;;26.13;19.80;;;;;;;-144.99;100.00;52509.25;5055278;28;20695;-72
2020/12/30 04:02:43;;;;;;;27.97;23.10;;;;;;;-144.99;100.00;52511.28;5059134;28;20628;-73
2020/12/30 04:05:09;;;;;;;28.23;21.13;;;;;;;-144.99;100.00;52525.56;5055876;28;20673;-74
2020/12/30 04:07:36;;;;;;;30.23;21.80;;;;;;;-144.99;100.00;52501.09;5054819;28;20699;-75
2020/12/30 04:10:03;;;;;;;27.93;23.63;;;;;;;-144.99;100.00;52545.94;5056873;28;20683;-75
2020/12/30 04:12:29;;;;;;;29.60;21.67;;;;;;;-144.99;100.00;52474.59;5064006;28;20733;-75
2020/12/30 04:14:55;;;;;;;22.70;17.73;;;;;;;-144.99;100.00;52501.09;5089090;28;20723;-75
2020/12/30 04:17:21;;;;;;;27.67;23.03;;;;;;;-144.99;100.00;52511.28;5059812;28;21199;-75
2020/12/30 04:19:47;;;;;;;30.73;22.03;;;;;;;-144.99;100.00;52501.09;5061831;28;20652;-76
2020/12/30 04:22:13;;;;;;;34.57;21.90;;;;;;;-144.99;100.00;52529.63;5058333;28;20620;-75
2020/12/30 04:24:40;;;;;;;30.10;21.33;;;;;;;-144.99;100.00;52541.84;5075446;28;20670;-76
2020/12/30 04:27:06;;;;;;;27.70;20.17;;;;;;;-144.99;100.00;52492.94;5057187;28;20752;-76
2020/12/30 04:29:33;;;;;;;28.27;21.13;;;;;;;-144.99;100.00;52533.69;5071107;28;20651;-76
2020/12/30 04:31:59;;;;;;;27.07;21.33;;;;;;;-144.99;100.00;52484.78;5054086;28;20699;-74
2020/12/30 04:34:25;;;;;;;27.77;21.03;;;;;;;-144.99;100.00;52497.00;5067662;28;21195;-76
2020/12/30 04:36:51;;;;;;;31.50;22.90;;;;;;;-144.99;100.00;52488.84;5063700;28;20650;-74
2020/12/30 04:39:17;;;;;;;31.03;24.00;;;;;;;-144.99;100.00;52545.94;5069478;28;20673;-74
2020/12/30 04:41:46;;;;;;;28.37;22.10;;;;;;;-144.99;100.00;52497.00;5085664;28;20968;-75
2020/12/30 04:44:15;;;;;;;28.47;21.77;;;;;;;-144.99;100.00;52472.56;5065640;28;20705;-75
2020/12/30 04:46:42;;;;;;;27.73;21.33;;;;;;;-144.99;100.00;52525.56;5054488;28;20660;-75
2020/12/30 04:49:11;;;;;;;29.13;22.80;;;;;;;-144.99;100.00;52519.44;5056845;28;20754;-75
2020/12/30 04:51:38;;;;;;;29.43;23.13;;;;;;;-144.99;100.00;52523.50;5055390;28;20709;-75
2020/12/30 04:54:05;;;;;;;31.17;22.53;;;;;;;-144.99;100.00;52521.47;5071585;28;21143;-76
2020/12/30 04:56:56;;;;;;;31.27;24.23;;;;;;;-144.99;100.00;52541.84;5060144;28;20645;-74
2020/12/30 04:59:25;;;;;;;29.27;22.77;;;;;;;-144.99;100.00;52537.78;5056234;28;20669;-72
2020/12/30 05:02:06;;;;;;;29.60;22.60;;;;;;;-144.99;100.00;52533.69;5072378;28;20940;-74
2020/12/30 05:04:33;;;;;;;26.83;22.30;;;;;;;-144.99;100.00;52539.81;5072330;28;20734;-75
2020/12/30 05:07:06;;;;;;;26.37;21.33;;;;;;;-144.99;100.00;52509.25;5067808;28;20719;-74
2020/12/30 05:09:34;;;;;;;28.60;22.97;;;;;;;-144.99;100.00;52543.91;5054248;28;21077;-74
2020/12/30 05:12:01;;;;;;;28.17;24.00;;;;;;;-144.99;100.00;52558.16;5056829;28;20639;-74
2020/12/30 05:14:27;;;;;;;31.57;26.00;;;;;;;-144.99;100.00;52513.31;5087848;28;20870;-74
2020/12/30 05:16:54;;;;;;;31.17;22.43;;;;;;;-144.99;100.00;52529.63;5055816;28;20643;-77
2020/12/30 05:19:22;;;;;;;31.83;24.93;;;;;;;-144.99;100.00;52517.41;5054426;28;20706;-72
2020/12/30 05:21:48;;;;;;;28.57;23.53;;;;;;;-144.99;100.00;52513.31;5065983;28;20666;-74
2020/12/30 05:24:14;;;;;;;31.63;24.30;;;;;;;-144.99;100.00;52517.41;5052558;28;20715;-74
2020/12/30 05:26:42;;;;;;;32.37;24.97;;;;;;;-144.99;100.00;52517.41;5060600;28;20628;-73
2020/12/30 05:29:10;;;;;;;37.10;25.57;;;;;;;-144.99;100.00;52501.09;5051242;28;20674;-73
2020/12/30 05:31:36;;;;;;;35.97;26.23;;;;;;;-144.99;100.00;52509.25;5064395;28;20675;-72
2020/12/30 05:34:03;;;;;;;34.67;26.23;;;;;;;-144.99;100.00;52505.16;5051219;28;20669;-72
2020/12/30 05:36:29;;;;;;;33.53;28.03;;;;;;;-144.99;100.00;52513.31;5058693;28;21141;-72
2020/12/30 05:38:55;;;;;;;33.93;27.77;;;;;;;-144.99;100.00;52545.94;5057202;28;20636;-72
2020/12/30 05:41:21;;;;;;;35.13;25.10;;;;;;;-144.99;100.00;52509.25;5076437;28;20731;-71
2020/12/30 05:43:48;;;;;;;33.17;24.40;;;;;;;-144.99;100.00;52537.78;5057302;28;20616;-72
2020/12/30 05:46:28;;;;;;;31.60;24.50;;;;;;;-144.99;100.00;52505.16;5053858;28;20619;-72
2020/12/30 05:48:55;;;;;;;30.17;25.03;;;;;;;-144.99;100.00;52517.41;5069891;28;20758;-72
2020/12/30 05:51:28;;;;;;;33.50;24.10;;;;;;;-144.99;100.00;52509.25;5072352;28;20683;-72
2020/12/30 05:54:12;;;;;;;37.80;24.43;;;;;;;-144.99;100.00;52494.97;5070446;28;20829;-72
2020/12/30 05:56:39;;;;;;;32.70;24.93;;;;;;;-144.99;100.00;52521.47;5057129;28;20646;-72
2020/12/30 05:59:06;;;;;;;35.53;26.20;;;;;;;-144.99;100.00;52474.59;5053299;28;21075;-73
2020/12/30 06:01:38;;;;;;;30.63;23.83;;;;;;;-144.99;100.00;52529.63;5053063;28;20612;-74
2020/12/30 06:04:18;;;;;;;36.93;23.97;;;;;;;-144.99;100.00;52511.28;5050498;28;20630;-76
2020/12/30 06:06:45;;;;;;;33.63;25.57;;;;;;;-144.99;100.00;52492.94;5054924;28;20619;-77
2020/12/30 06:09:16;;;;;;;28.73;21.83;;;;;;;-144.99;100.00;52476.63;5075116;28;20678;-75
2020/12/30 06:11:54;;;;;;;32.93;22.03;;;;;;;-144.99;100.00;52521.47;5053313;28;20662;-74
2020/12/30 06:14:21;;;;;;;30.00;22.60;;;;;;;-144.99;100.00;52529.63;5082380;28;20645;-75
2020/12/30 06:16:48;;;;;;;29.23;22.60;;;;;;;-144.99;100.00;52562.25;5053707;28;20632;-74
2020/12/30 06:19:15;;;;;;;34.60;21.70;;;;;;;-144.99;100.00;52480.72;5057366;28;21188;-75
2020/12/30 06:21:43;;;;;;;36.63;24.00;;;;;;;-144.99;100.00;52521.47;5050332;28;20662;-74
2020/12/30 06:24:12;;;;;;;26.13;19.77;;;;;;;-144.99;100.00;52517.41;5056111;28;20952;-75
2020/12/30 06:26:38;;;;;;;30.97;23.57;;;;;;;-144.99;100.00;52517.41;5051550;28;21153;-74
2020/12/30 06:29:12;;;;;;;33.47;23.07;;;;;;;-144.99;100.00;52488.84;5051845;28;20636;-75
2020/12/30 06:31:46;;;;;;;28.37;22.40;;;;;;;-144.99;100.00;52541.84;5049375;28;20666;-75
2020/12/30 06:34:14;;;;;;;26.17;20.33;;;;;;;-144.99;100.00;52562.25;5061132;28;20711;-75
2020/12/30 06:36:43;;;;;;;29.37;22.37;;;;;;;-144.99;100.00;52509.25;5068645;28;20641;-75
2020/12/30 06:39:19;;;;;;;30.43;22.80;;;;;;;-144.99;100.00;52533.69;5063913;28;21092;-74
2020/12/30 06:41:56;;;;;;;25.43;20.27;;;;;;;-144.99;100.00;52537.78;5068897;28;20624;-73
2020/12/30 06:44:36;;;;;;;28.40;22.37;;;;;;;-144.99;100.00;52533.69;5055000;28;20627;-74
2020/12/30 06:47:02;;;;;;;32.63;22.90;;;;;;;-144.99;100.00;52501.09;5049658;28;20636;-74
2020/12/30 06:49:29;;;;;;;26.60;20.87;;;;;;;-144.99;100.00;52554.09;5051293;28;20803;-74
2020/12/30 06:51:55;;;;;;;29.43;20.30;;;;;;;-144.99;100.00;52525.56;5048716;28;20655;-74
2020/12/30 06:54:21;;;;;;;27.30;21.27;;;;;;;-144.99;100.00;52509.25;5050057;28;21223;-74
2020/12/30 06:56:49;;;;;;;27.93;21.10;;;;;;;-144.99;100.00;52541.84;5049236;28;20700;-75
2020/12/30 06:59:16;;;;;;;28.37;19.87;;;;;;;-144.99;100.00;52537.78;5055576;28;21128;-75
2020/12/30 07:01:53;;;;;;;28.03;22.20;;;;;;;-144.99;100.00;52529.63;5061612;28;20699;-76
2020/12/30 07:04:20;;;;;;;29.80;21.93;;;;;;;-144.99;100.00;52545.94;5055020;28;21071;-74
2020/12/30 07:06:47;;;;;;;32.90;23.60;;;;;;;-144.99;100.00;52484.78;5055524;28;20715;-75
2020/12/30 07:09:14;;;;;;;24.27;20.23;;;;;;;-144.99;100.00;52509.25;5052410;28;21034;-76
2020/12/30 07:11:53;;;;;;;29.77;22.20;;;;;;;-144.99;100.00;52488.84;5070655;28;21265;-75
2020/12/30 07:14:21;;;;;;;24.57;19.70;;;;;;;-144.99;100.00;52509.25;5087273;28;20634;-76
2020/12/30 07:16:53;;;;;;;26.80;20.17;;;;;;;-144.99;100.00;52558.16;5063852;28;20674;-76
2020/12/30 07:19:24;;;;;;;29.90;20.37;;;;;;;-144.99;100.00;52509.25;5056023;28;20660;-76
2020/12/30 07:21:53;;;;;;;26.37;21.37;;;;;;;-144.99;100.00;52507.19;5069050;28;20636;-76
2020/12/30 07:24:21;;;;;;;27.50;20.27;;;;;;;-144.99;100.00;52513.31;5056878;28;20708;-75
2020/12/30 07:26:48;;;;;;;28.17;20.43;;;;;;;-144.99;100.00;52497.00;5066828;28;20634;-75
2020/12/30 07:29:15;;;;;;;27.77;20.77;;;;;;;-144.99;100.00;52492.94;5056273;28;20750;-76
2020/12/30 07:31:41;;;;;;;24.20;18.10;;;;;;;-144.99;100.00;52537.78;5062690;28;20646;-74
2020/12/30 07:34:14;;;;;;;29.93;20.33;;;;;;;-144.99;100.00;52541.84;5053151;28;21225;-74
2020/12/30 07:36:42;;;;;;;25.77;20.27;;;;;;;-144.99;100.00;52523.50;5065409;28;21140;-74
2020/12/30 07:39:09;;;;;;;27.47;20.20;;;;;;;-144.99;100.00;52513.31;5059126;28;20797;-72
2020/12/30 07:41:36;;;;;;;25.57;19.20;;;;;;;-144.99;100.00;52511.28;5082342;28;20714;-73
2020/12/30 07:44:04;;;;;;;28.93;21.60;;;;;;;-144.99;100.00;52533.69;5062562;28;20615;-74
2020/12/30 07:46:30;;;;;;;31.43;20.53;;;;;;;-144.99;100.00;52488.84;5076322;28;20627;-73
2020/12/30 07:49:07;;;;;;;26.97;19.43;;;;;;;-144.99;100.00;52517.41;5072098;28;20666;-73
2020/12/30 07:51:34;;;;;;;27.23;21.03;;;;;;;-144.99;100.00;52501.09;5060706;28;20650;-73
2020/12/30 07:54:00;;;;;;;27.03;20.27;;;;;;;-144.99;100.00;52533.69;5073903;28;21180;-76
2020/12/30 07:56:27;;;;;;;31.37;20.97;;;;;;;-144.99;100.00;52525.56;5060346;28;21193;-74
2020/12/30 07:58:53;;;;;;;28.53;21.80;;;;;;;-144.99;100.00;52558.16;5058133;28;20647;-76
2020/12/30 08:01:20;;;;;;;28.23;22.03;;;;;;;-144.99;100.00;52517.41;5054467;28;20678;-75
2020/12/30 08:03:46;;;;;;;28.50;20.20;;;;;;;-144.99;100.00;52525.56;5069342;28;20719;-75
2020/12/30 08:06:13;;;;;;;20.87;18.70;;;;;;;-144.99;100.00;52533.69;5054479;28;20707;-76
2020/12/30 08:08:47;;;;;;;23.73;19.03;;;;;;;-144.99;100.00;52533.69;5066862;28;21217;-75
2020/12/30 08:11:19;;;;;;;28.40;21.97;;;;;;;-144.99;100.00;52460.31;5054445;28;20702;-79
2020/12/30 08:13:46;;;;;;;31.50;22.27;;;;;;;-144.99;100.00;52533.69;5081227;28;20638;-76
2020/12/30 08:16:14;;;;;;;26.20;21.53;;;;;;;-144.99;100.00;52480.72;5068253;28;20652;-74
2020/12/30 08:18:50;;;;;;;27.17;23.00;;;;;;;-144.99;100.00;52550.00;5066961;28;20905;-75
2020/12/30 08:21:21;;;;;;;24.00;18.93;;;;;;;-144.99;100.00;52501.09;5074753;28;20694;-76
2020/12/30 08:23:47;;;;;;;23.53;18.20;;;;;;;-144.99;100.00;52515.34;5067759;28;20615;-76
2020/12/30 08:26:14;;;;;;;26.60;20.63;;;;;;;-144.99;100.00;52509.25;5072897;28;20738;-76
2020/12/30 08:28:40;;;;;;;29.33;21.50;;;;;;;-144.99;100.00;52521.47;5073153;28;20747;-76
2020/12/30 08:31:16;;;;;;;29.80;21.97;;;;;;;-144.99;100.00;52513.31;5074102;28;20654;-76
2020/12/30 08:33:46;;;;;;;27.80;20.13;;;;;;;-144.99;100.00;52554.09;5073595;28;21010;-76
2020/12/30 08:36:21;;;;;;;31.07;20.80;;;;;;;-144.99;100.00;52501.09;5072278;28;20658;-75
2020/12/30 08:38:51;;;;;;;24.73;18.83;;;;;;;-144.99;100.00;52529.63;5066859;28;20660;-74
2020/12/30 08:41:24;;;;;;;26.03;19.80;;;;;;;-144.99;100.00;52521.47;5075861;28;20628;-75
2020/12/30 08:43:56;;;;;;;29.47;23.17;;;;;;;-144.99;100.00;52527.59;5055427;28;20652;-75
2020/12/30 08:46:25;;;;;;;34.07;23.53;;;;;;;-144.99;100.00;52545.94;5052796;28;21033;-75
2020/12/30 08:48:53;;;;;;;31.10;26.17;;;;;;;-144.99;100.00;52531.66;5053345;28;21163;-73
2020/12/30 08:51:31;;;;;;;26.83;20.90;;;;;;;-144.99;100.00;52492.94;5064381;28;20652;-75
2020/12/30 08:53:58;;;;;;;27.50;20.70;;;;;;;-144.99;100.00;52541.84;5066568;28;20616;-74
2020/12/30 08:56:24;;;;;;;28.00;21.83;;;;;;;-144.99;100.00;52541.84;5062733;28;20631;-75
2020/12/30 08:58:57;;;;;;;23.20;17.33;;;;;;;-144.99;100.00;52519.44;5065765;28;20650;-75
2020/12/30 09:01:25;;;;;;;34.63;24.37;;;;;;;-144.99;100.00;52505.16;5062140;28;20636;-75
2020/12/30 09:03:52;;;;;;;28.87;22.83;;;;;;;-144.99;100.00;52509.25;5052867;28;20609;-75
2020/12/30 09:06:28;;;;;;;27.80;21.30;;;;;;;-144.99;100.00;52515.34;5054940;28;20624;-76
2020/12/30 09:08:55;;;;;;;28.70;21.13;;;;;;;-144.99;100.00;52562.25;5054152;28;20655;-74
2020/12/30 09:11:22;;;;;;;28.93;22.43;;;;;;;-144.99;100.00;52513.31;5063892;28;20690;-76
2020/12/30 09:13:48;;;;;;;26.67;21.67;;;;;;;-144.99;100.00;52492.94;5075612;28;20693;-75
2020/12/30 09:16:14;;;;;;;25.27;20.80;;;;;;;-144.99;100.00;52484.78;5071044;28;20735;-77
2020/12/30 09:18:41;;;;;;;29.97;21.37;;;;;;;-144.99;100.00;52521.47;5055404;28;20648;-76
2020/12/30 09:21:25;;;;;;;32.13;23.07;;;;;;;-144.99;100.00;52507.19;5055259;28;21250;-77
2020/12/30 09:23:51;;;;;;;31.37;23.27;;;;;;;-144.99;100.00;52505.16;5055358;28;20619;-76
2020/12/30 09:26:30;;;;;;;31.00;23.73;;;;;;;-144.99;100.00;52558.16;5053498;28;20643;-75
2020/12/30 09:28:56;;;;;;;37.20;23.13;;;;;;;-144.99;100.00;52529.63;5077073;28;20650;-74
2020/12/30 09:31:22;;;;;;;33.03;21.93;;;;;;;-144.99;100.00;52525.56;5084106;28;20717;-76
2020/12/30 09:33:49;;;;;;;32.20;23.90;;;;;;;-144.99;100.00;52517.41;5077277;28;20615;-77
2020/12/30 09:36:16;;;;;;;35.47;25.90;;;;;;;-144.99;100.00;52515.34;5077637;28;20667;-76
2020/12/30 09:38:42;;;;;;;31.47;23.47;;;;;;;-144.99;100.00;52521.47;5069413;28;20670;-76
2020/12/30 09:41:13;;;;;;;30.63;22.40;;;;;;;-144.99;100.00;52529.63;5074428;28;20673;-75
2020/12/30 09:43:46;;;;;;;27.60;20.97;;;;;;;-144.99;100.00;52521.47;5061592;28;20705;-76
2020/12/30 09:46:20;;;;;;;31.33;22.77;;;;;;;-144.99;100.00;52533.69;5064599;28;20616;-76
2020/12/30 09:48:46;;;;;;;29.63;22.03;;;;;;;-144.99;100.00;52484.78;5055776;28;20720;-74
2020/12/30 09:51:17;;;;;;;29.83;23.73;;;;;;;-144.99;100.00;52525.56;5057880;28;20754;-75
2020/12/30 09:53:44;;;;;;;29.83;21.43;;;;;;;-144.99;100.00;52476.63;5056238;28;20640;-75
2020/12/30 09:56:12;;;;;;;30.60;23.07;;;;;;;-144.99;100.00;52545.94;5062421;28;21053;-75
2020/12/30 09:58:39;;;;;;;33.17;23.80;;;;;;;-144.99;100.00;52529.63;5052450;28;20754;-74
2020/12/30 10:01:05;;;;;;;30.27;21.73;;;;;;;-144.99;100.00;52505.16;5061073;28;20693;-74
2020/12/30 10:03:32;;;;;;;34.50;26.67;;;;;;;-144.99;100.00;52529.63;5050639;28;20746;-73
2020/12/30 10:05:58;;;;;;;28.20;22.53;;;;;;;-144.99;100.00;52541.84;5062559;28;20985;-74
2020/12/30 10:08:25;;;;;;;35.83;24.93;;;;;;;-144.99;100.00;52537.78;5050732;28;21007;-75
2020/12/30 10:10:51;;;;;;;28.47;21.80;;;;;;;-144.99;100.00;52513.31;5063973;28;21101;-74
2020/12/30 10:13:17;;;;;;;32.17;21.90;;;;;;;-144.99;100.00;52558.16;5077817;28;20664;-74
2020/12/30 10:15:43;;;;;;;30.43;23.93;;;;;;;-144.99;100.00;52550.00;5074774;28;20627;-76
2020/12/30 10:18:09;;;;;;;37.83;24.63;;;;;;;-144.99;100.00;52497.00;5051326;28;20722;-77
2020/12/30 10:20:35;;;;;;;35.50;25.37;;;;;;;-144.99;100.00;52513.31;5061297;28;20735;-76
2020/12/30 10:23:02;;;;;;;27.00;21.43;;;;;;;-144.99;100.00;52492.94;5062041;28;20631;-75
2020/12/30 10:25:29;;;;;;;33.63;22.10;;;;;;;-144.99;100.00;52525.56;5065906;28;20623;-76
2020/12/30 10:27:55;;;;;;;32.53;24.33;;;;;;;-144.99;100.00;52517.41;5057731;28;20616;-76
2020/12/30 10:30:21;;;;;;;31.23;23.37;;;;;;;-144.99;100.00;52545.94;5052288;28;20655;-75
2020/12/30 10:32:47;;;;;;;32.13;23.17;;;;;;;-144.99;100.00;52509.25;5070911;28;21228;-74
2020/12/30 10:35:13;;;;;;;34.67;22.47;;;;;;;-144.99;100.00;52545.94;5063854;28;20631;-75
2020/12/30 10:37:39;;;;;;;28.47;20.80;;;;;;;-144.99;100.00;52554.09;5067221;28;21219;-74
2020/12/30 10:40:06;;;;;;;28.67;21.20;;;;;;;-144.99;100.00;52527.59;5060933;28;20804;-76
2020/12/30 10:42:33;;;;;;;24.87;18.03;;;;;;;-144.99;100.00;52562.25;5068106;28;20770;-76
2020/12/30 10:44:59;;;;;;;33.77;22.07;;;;;;;-144.99;100.00;52541.84;5060666;28;20651;-77
2020/12/30 10:47:25;;;;;;;31.23;20.43;;;;;;;-144.99;100.00;52513.31;5065872;28;20627;-76
2020/12/30 10:49:51;;;;;;;30.80;23.10;;;;;;;-144.99;100.00;52562.25;5071466;28;20719;-76
2020/12/30 10:52:17;;;;;;;34.67;22.97;;;;;;;-144.99;100.00;52552.03;5061413;28;20751;-77
2020/12/30 10:54:43;;;;;;;27.47;21.00;;;;;;;-144.99;100.00;52521.47;5064296;28;20701;-74
2020/12/30 10:57:10;;;;;;;24.53;19.77;;;;;;;-144.99;100.00;52497.00;5064386;28;20726;-75